This is the latest recevied weather packets stored in our database for station/object F8BJE-13. If no packets are shown the sender has not sent any weather packets the latest 10 day(s).
| Time | Temp. | Humidity | Pressure | Rain* | Wind** | Luminosity | Snow |
|---|---|---|---|---|---|---|---|
| 1787686203 | 19.44° C | 72% | 1015.9 hPa | 0 mm | - | - | - |
| 1787684403 | 20° C | 68% | 1015.5 hPa | 0 mm | - | - | - |
| 1787682603 | 21.11° C | 65% | 1015.2 hPa | 0 mm | - | - | - |
| 1787680803 | 21.67° C | 62% | 1015.1 hPa | 0 mm | - | - | - |
| 1787679003 | 22.22° C | 61% | 1014.8 hPa | 0 mm | - | - | - |
| 1787677203 | 22.78° C | 60% | 1014.7 hPa | 0 mm | - | - | - |
| 1787675403 | 22.78° C | 57% | 1014.8 hPa | 0 mm | - | - | - |
| 1787673603 | 23.33° C | 55% | 1014.8 hPa | 0 mm | - | - | - |
| 1787671803 | 23.33° C | 58% | 1014.9 hPa | 0 mm | - | - | - |
| 1787670003 | 24.44° C | 54% | 1014.8 hPa | 0 mm | - | - | - |
| 1787668203 | 23.33° C | 54% | 1015 hPa | 0 mm | - | - | - |
| 1787666403 | 24.44° C | 53% | 1015.1 hPa | 0 mm | - | - | - |
| 1787664603 | 23.89° C | 55% | 1015.2 hPa | 0 mm | - | - | - |
| 1787662803 | 23.89° C | 55% | 1015 hPa | 0 mm | - | - | - |
| 1787661003 | 23.89° C | 55% | 1015 hPa | 0 mm | - | - | - |
| 1787659203 | 24.44° C | 54% | 1015 hPa | 0 mm | - | - | - |
| 1787657403 | 25° C | 51% | 1015.1 hPa | 0 mm | - | - | - |
| 1787655603 | 25.56° C | 50% | 1015 hPa | 0 mm | - | - | - |
| 1787653803 | 23.89° C | 57% | 1015 hPa | 0 mm | - | - | - |
| 1787652003 | 25° C | 53% | 1015 hPa | 0 mm | - | - | - |
| 1787650203 | 25.56° C | 55% | 1015.1 hPa | 0 mm | - | - | - |
| 1787648403 | 22.78° C | 64% | 1015 hPa | 0 mm | - | - | - |
| 1787646603 | 18.89° C | 76% | 1015 hPa | 0 mm | - | - | - |
| 1787644803 | 17.78° C | 80% | 1014.9 hPa | 0 mm | - | - | - |
| 1787643003 | 16.67° C | 85% | 1014.5 hPa | 0 mm | - | - | - |
* Rain latest hour (hover to see other rain measurements)
** Current wind speed in m/s (hover to see current wind gust speed)